Time,TemperatureF,DewpointF,PressureIn,WindDirection,WindDirectionDegrees,WindSpeedMPH,WindSpeedGustMPH,Humidity,HourlyPrecipIn,Conditions,Clouds,dailyrainin,SolarRadiationWatts/m^2,SoftwareType,DateUTC
2013-08-25 00:04:00,74.2,73.0,30.09,ESE,110,0.0,0.0,95,0.00,,,0.00,0,weatherlink.com 1.10,2013-08-25 04:04:00,
2013-08-25 00:19:00,74.2,73.0,30.10,ESE,111,0.0,0.0,95,0.00,,,0.00,0,weatherlink.com 1.10,2013-08-25 04:19:00,
2013-08-25 00:34:00,74.1,73.0,30.09,ESE,110,0.0,0.0,95,0.00,,,0.00,0,weatherlink.com 1.10,2013-08-25 04:34:00,
2013-08-25 00:49:00,74.4,73.0,30.10,ESE,109,0.0,1.0,95,0.00,,,0.00,0,weatherlink.com 1.10,2013-08-25 04:49:00,
2013-08-25 01:04:00,74.6,73.0,30.10,ESE,111,0.0,1.0,96,0.00,,,0.00,0,weatherlink.com 1.10,2013-08-25 05:04:00,
2013-08-25 01:19:00,74.7,73.0,30.09,ESE,107,0.0,1.0,95,0.00,,,0.00,0,weatherlink.com 1.10,2013-08-25 05:19:00,
2013-08-25 01:34:00,74.6,73.0,30.09,ESE,107,0.0,0.0,95,0.00,,,0.00,0,weatherlink.com 1.10,2013-08-25 05:34:00,
2013-08-25 01:49:00,74.4,73.0,30.09,ESE,106,0.0,0.0,95,0.00,,,0.00,0,weatherlink.com 1.10,2013-08-25 05:49:00,
2013-08-25 02:05:00,74.7,73.0,30.07,ESE,107,0.0,1.0,95,0.00,,,0.00,0,weatherlink.com 1.10,2013-08-25 06:05:00,
2013-08-25 02:20:00,74.8,73.0,30.07,ESE,107,0.0,1.0,95,0.00,,,0.00,0,weatherlink.com 1.10,2013-08-25 06:20:00,
2013-08-25 02:35:00,74.5,73.0,30.07,ESE,107,0.0,0.0,96,0.00,,,0.00,0,weatherlink.com 1.10,2013-08-25 06:35:00,
2013-08-25 02:50:00,74.4,73.0,30.06,ESE,107,0.0,1.0,96,0.00,,,0.00,0,weatherlink.com 1.10,2013-08-25 06:50:00,
2013-08-25 03:05:00,74.4,73.0,30.06,ESE,107,0.0,1.0,96,0.00,,,0.00,0,weatherlink.com 1.10,2013-08-25 07:05:00,
2013-08-25 03:20:00,74.6,73.0,30.06,ESE,107,0.0,0.0,96,0.00,,,0.00,0,weatherlink.com 1.10,2013-08-25 07:20:00,
2013-08-25 03:35:00,74.6,73.0,30.06,ESE,108,0.0,1.0,96,0.00,,,0.00,0,weatherlink.com 1.10,2013-08-25 07:35:00,
2013-08-25 03:50:00,74.6,73.0,30.06,ESE,107,0.0,1.0,96,0.00,,,0.00,0,weatherlink.com 1.10,2013-08-25 07:50:00,
2013-08-25 04:05:00,74.6,73.0,30.06,ESE,107,0.0,1.0,96,0.00,,,0.00,0,weatherlink.com 1.10,2013-08-25 08:05:00,
2013-08-25 04:20:00,74.9,74.0,30.06,NNE,15,0.0,1.0,96,0.00,,,0.00,0,weatherlink.com 1.10,2013-08-25 08:20:00,
2013-08-25 04:35:00,74.8,74.0,30.07,NNE,26,0.0,5.0,96,0.00,,,0.00,0,weatherlink.com 1.10,2013-08-25 08:35:00,
2013-08-25 04:50:00,74.7,74.0,30.07,NNE,20,0.0,2.0,96,0.00,,,0.00,0,weatherlink.com 1.10,2013-08-25 08:50:00,
2013-08-25 05:05:00,74.6,73.0,30.07,NNE,17,1.0,3.0,96,0.00,,,0.00,0,weatherlink.com 1.10,2013-08-25 09:05:00,
2013-08-25 05:20:00,74.7,74.0,30.08,NNE,17,0.0,2.0,96,0.00,,,0.00,0,weatherlink.com 1.10,2013-08-25 09:20:00,
2013-08-25 05:35:00,74.7,74.0,30.08,NNE,18,0.0,2.0,96,0.00,,,0.00,0,weatherlink.com 1.10,2013-08-25 09:35:00,
2013-08-25 05:50:00,74.7,74.0,30.09,NNE,17,0.0,2.0,96,0.00,,,0.00,0,weatherlink.com 1.10,2013-08-25 09:50:00,
2013-08-25 06:05:00,74.6,73.0,30.09,NNE,17,0.0,0.0,96,0.00,,,0.00,0,weatherlink.com 1.10,2013-08-25 10:05:00,
2013-08-25 06:20:00,74.5,73.0,30.10,NNE,17,0.0,1.0,96,0.00,,,0.00,0,weatherlink.com 1.10,2013-08-25 10:20:00,
2013-08-25 06:35:00,74.4,73.0,30.10,NNE,17,0.0,0.0,96,0.00,,,0.00,0,weatherlink.com 1.10,2013-08-25 10:35:00,
2013-08-25 06:50:00,74.3,73.0,30.10,NNE,17,0.0,0.0,96,0.00,,,0.00,0,weatherlink.com 1.10,2013-08-25 10:50:00,
2013-08-25 07:05:00,74.3,73.0,30.10,NNE,17,0.0,0.0,96,0.00,,,0.00,0,weatherlink.com 1.10,2013-08-25 11:05:00,
2013-08-25 07:20:00,74.4,73.0,30.11,NNE,17,0.0,1.0,96,0.00,,,0.00,9,weatherlink.com 1.10,2013-08-25 11:20:00,
2013-08-25 07:35:00,74.6,73.0,30.11,NNE,17,0.0,1.0,96,0.00,,,0.00,28,weatherlink.com 1.10,2013-08-25 11:35:00,
2013-08-25 07:50:00,74.8,74.0,30.11,NNE,17,0.0,0.0,96,0.00,,,0.00,51,weatherlink.com 1.10,2013-08-25 11:50:00,
2013-08-25 08:05:00,75.6,74.0,30.11,NNE,17,0.0,1.0,96,0.00,,,0.00,199,weatherlink.com 1.10,2013-08-25 12:05:00,
2013-08-25 08:20:00,76.4,75.0,30.11,NNE,18,0.0,1.0,96,0.00,,,0.00,120,weatherlink.com 1.10,2013-08-25 12:20:00,
2013-08-25 08:35:00,76.6,75.0,30.11,NNE,17,0.0,2.0,96,0.00,,,0.00,251,weatherlink.com 1.10,2013-08-25 12:35:00,
2013-08-25 08:50:00,77.2,76.0,30.12,NNE,17,1.0,2.0,96,0.00,,,0.00,290,weatherlink.com 1.10,2013-08-25 12:50:00,
2013-08-25 09:05:00,77.6,76.0,30.12,NNE,30,0.0,1.0,96,0.00,,,0.00,271,weatherlink.com 1.10,2013-08-25 13:05:00,
2013-08-25 09:20:00,78.2,77.0,30.13,NE,34,0.0,3.0,95,0.00,,,0.00,323,weatherlink.com 1.10,2013-08-25 13:20:00,
2013-08-25 09:35:00,79.2,77.0,30.13,NNE,25,1.0,5.0,93,0.00,,,0.00,485,weatherlink.com 1.10,2013-08-25 13:35:00,
2013-08-25 09:50:00,79.9,77.0,30.14,NNE,28,0.0,6.0,90,0.00,,,0.00,459,weatherlink.com 1.10,2013-08-25 13:50:00,
2013-08-25 10:05:00,81.2,77.0,30.14,ESE,106,0.0,4.0,88,0.00,,,0.00,415,weatherlink.com 1.10,2013-08-25 14:05:00,
2013-08-25 10:20:00,81.6,77.0,30.14,NNE,19,2.0,5.0,85,0.00,,,0.00,287,weatherlink.com 1.10,2013-08-25 14:20:00,
2013-08-25 10:35:00,82.2,77.0,30.14,ESE,106,0.0,4.0,83,0.00,,,0.00,615,weatherlink.com 1.10,2013-08-25 14:35:00,
2013-08-25 10:50:00,83.1,76.0,30.14,NE,53,1.0,5.0,78,0.00,,,0.00,346,weatherlink.com 1.10,2013-08-25 14:50:00,
2013-08-25 11:06:00,83.5,75.0,30.14,NE,51,1.0,7.0,75,0.00,,,0.00,429,weatherlink.com 1.10,2013-08-25 15:06:00,
2013-08-25 11:21:00,84.0,75.0,30.14,NE,48,0.0,3.0,75,0.00,,,0.00,330,weatherlink.com 1.10,2013-08-25 15:21:00,
2013-08-25 11:36:00,84.3,75.0,30.14,East,98,0.0,3.0,74,0.00,,,0.00,346,weatherlink.com 1.10,2013-08-25 15:36:00,
2013-08-25 11:51:00,84.2,75.0,30.14,NNW,337,0.0,5.0,74,0.00,,,0.00,406,weatherlink.com 1.10,2013-08-25 15:51:00,
2013-08-25 12:06:00,84.8,75.0,30.14,NE,36,0.0,3.0,73,0.01,,,0.01,450,weatherlink.com 1.10,2013-08-25 16:06:00,
2013-08-25 12:21:00,85.3,75.0,30.14,NE,34,3.0,4.0,72,0.01,,,0.01,468,weatherlink.com 1.10,2013-08-25 16:21:00,
2013-08-25 12:36:00,85.1,75.0,30.13,NNE,18,0.0,5.0,72,0.01,,,0.01,429,weatherlink.com 1.10,2013-08-25 16:36:00,
2013-08-25 12:51:00,85.5,75.0,30.12,East,92,0.0,3.0,70,0.01,,,0.01,397,weatherlink.com 1.10,2013-08-25 16:51:00,
2013-08-25 13:06:00,85.3,75.0,30.11,NNE,18,0.0,4.0,71,0.00,,,0.01,612,weatherlink.com 1.10,2013-08-25 17:06:00,
2013-08-25 13:21:00,85.4,75.0,30.11,East,80,0.0,8.0,70,0.00,,,0.01,192,weatherlink.com 1.10,2013-08-25 17:21:00,
2013-08-25 13:36:00,82.7,73.0,30.11,East,88,0.0,9.0,72,0.00,,,0.01,172,weatherlink.com 1.10,2013-08-25 17:36:00,
2013-08-25 13:51:00,80.6,72.0,30.12,East,79,0.0,5.0,76,0.00,,,0.01,139,weatherlink.com 1.10,2013-08-25 17:51:00,
2013-08-25 14:06:00,79.1,73.0,30.14,North,355,2.0,9.0,82,0.06,,,0.07,58,weatherlink.com 1.10,2013-08-25 18:06:00,
2013-08-25 14:21:00,76.8,73.0,30.12,North,355,0.0,2.0,87,0.12,,,0.13,100,weatherlink.com 1.10,2013-08-25 18:21:00,
2013-08-25 14:36:00,76.6,74.0,30.11,North,5,0.0,5.0,90,0.12,,,0.13,107,weatherlink.com 1.10,2013-08-25 18:36:00,
2013-08-25 14:51:00,76.7,74.0,30.11,North,360,0.0,1.0,91,0.12,,,0.13,67,weatherlink.com 1.10,2013-08-25 18:51:00,
2013-08-25 15:06:00,76.7,74.0,30.09,NNW,344,0.0,1.0,91,0.05,,,0.13,58,weatherlink.com 1.10,2013-08-25 19:06:00,
2013-08-25 15:21:00,76.8,74.0,30.09,NNW,344,0.0,0.0,92,0.00,,,0.13,74,weatherlink.com 1.10,2013-08-25 19:21:00,
2013-08-25 15:36:00,76.8,74.0,30.09,NNW,344,0.0,1.0,92,0.00,,,0.13,104,weatherlink.com 1.10,2013-08-25 19:36:00,
2013-08-25 15:51:00,77.0,75.0,30.08,NNW,344,0.0,1.0,92,0.00,,,0.13,151,weatherlink.com 1.10,2013-08-25 19:51:00,
2013-08-25 16:06:00,77.4,75.0,30.08,NNW,344,0.0,1.0,92,0.00,,,0.13,211,weatherlink.com 1.10,2013-08-25 20:06:00,
2013-08-25 16:21:00,77.9,75.0,30.07,NNW,344,0.0,1.0,91,0.00,,,0.13,432,weatherlink.com 1.10,2013-08-25 20:21:00,
2013-08-25 16:36:00,79.3,76.0,30.08,North,9,0.0,5.0,90,0.00,,,0.13,515,weatherlink.com 1.10,2013-08-25 20:36:00,
2013-08-25 16:51:00,80.6,75.0,30.08,East,92,2.0,6.0,83,0.00,,,0.13,468,weatherlink.com 1.10,2013-08-25 20:51:00,
2013-08-25 17:06:00,81.8,75.0,30.07,North,10,1.0,6.0,79,0.00,,,0.13,613,weatherlink.com 1.10,2013-08-25 21:06:00,
2013-08-25 17:21:00,82.8,75.0,30.06,NE,51,0.0,5.0,76,0.00,,,0.13,563,weatherlink.com 1.10,2013-08-25 21:21:00,
2013-08-25 17:36:00,83.6,75.0,30.06,NNE,22,0.0,7.0,76,0.00,,,0.13,533,weatherlink.com 1.10,2013-08-25 21:36:00,
2013-08-25 17:51:00,83.3,75.0,30.06,North,10,4.0,5.0,75,0.00,,,0.13,436,weatherlink.com 1.10,2013-08-25 21:51:00,
2013-08-25 18:06:00,82.9,74.0,30.07,North,9,0.0,8.0,74,0.00,,,0.13,327,weatherlink.com 1.10,2013-08-25 22:06:00,
2013-08-25 18:21:00,82.8,74.0,30.07,North,355,1.0,7.0,75,0.00,,,0.13,109,weatherlink.com 1.10,2013-08-25 22:21:00,
2013-08-25 18:36:00,82.5,74.0,30.07,NE,52,0.0,4.0,76,0.00,,,0.13,95,weatherlink.com 1.10,2013-08-25 22:36:00,
2013-08-25 18:51:00,82.2,74.0,30.07,North,5,0.0,3.0,77,0.00,,,0.13,72,weatherlink.com 1.10,2013-08-25 22:51:00,
2013-08-25 19:06:00,81.7,74.0,30.08,North,11,4.0,5.0,78,0.00,,,0.13,47,weatherlink.com 1.10,2013-08-25 23:06:00,
2013-08-25 19:21:00,81.2,74.0,30.09,NNE,32,0.0,5.0,78,0.00,,,0.13,33,weatherlink.com 1.10,2013-08-25 23:21:00,
2013-08-25 19:36:00,80.9,74.0,30.09,East,82,0.0,1.0,79,0.00,,,0.13,21,weatherlink.com 1.10,2013-08-25 23:36:00,
2013-08-25 19:51:00,80.5,74.0,30.10,East,82,0.0,1.0,80,0.00,,,0.13,0,weatherlink.com 1.10,2013-08-25 23:51:00,
2013-08-25 20:06:00,80.1,74.0,30.09,East,92,0.0,1.0,81,0.00,,,0.13,0,weatherlink.com 1.10,2013-08-26 00:06:00,
2013-08-25 20:21:00,79.8,74.0,30.10,NE,45,0.0,1.0,82,0.00,,,0.13,0,weatherlink.com 1.10,2013-08-26 00:21:00,
2013-08-25 20:36:00,79.3,73.0,30.09,NE,35,0.0,5.0,81,0.00,,,0.13,0,weatherlink.com 1.10,2013-08-26 00:36:00,
2013-08-25 20:51:00,78.7,73.0,30.11,NNE,26,0.0,5.0,82,0.00,,,0.13,0,weatherlink.com 1.10,2013-08-26 00:51:00,
2013-08-25 21:06:00,78.1,72.0,30.10,North,355,0.0,3.0,82,0.00,,,0.13,0,weatherlink.com 1.10,2013-08-26 01:06:00,
2013-08-25 21:21:00,77.7,72.0,30.11,North,355,0.0,2.0,83,0.00,,,0.13,0,weatherlink.com 1.10,2013-08-26 01:21:00,
2013-08-25 21:36:00,77.5,72.0,30.11,North,355,0.0,1.0,84,0.00,,,0.13,0,weatherlink.com 1.10,2013-08-26 01:36:00,
2013-08-25 21:51:00,77.2,72.0,30.12,North,355,0.0,2.0,85,0.00,,,0.13,0,weatherlink.com 1.10,2013-08-26 01:51:00,
2013-08-25 22:06:00,77.3,73.0,30.12,North,355,0.0,1.0,86,0.00,,,0.13,0,weatherlink.com 1.10,2013-08-26 02:06:00,
2013-08-25 22:21:00,77.1,73.0,30.13,North,355,0.0,1.0,87,0.00,,,0.13,0,weatherlink.com 1.10,2013-08-26 02:21:00,
2013-08-25 22:36:00,76.9,73.0,30.13,North,355,0.0,1.0,88,0.00,,,0.13,0,weatherlink.com 1.10,2013-08-26 02:36:00,
2013-08-25 22:51:00,77.0,73.0,30.13,North,355,0.0,1.0,88,0.00,,,0.13,0,weatherlink.com 1.10,2013-08-26 02:51:00,
2013-08-25 23:06:00,76.8,73.0,30.13,North,355,0.0,0.0,89,0.00,,,0.13,0,weatherlink.com 1.10,2013-08-26 03:06:00,
2013-08-25 23:21:00,76.6,74.0,30.13,North,355,0.0,1.0,90,0.00,,,0.13,0,weatherlink.com 1.10,2013-08-26 03:21:00,
2013-08-25 23:36:00,76.5,74.0,30.12,North,355,0.0,1.0,90,0.00,,,0.13,0,weatherlink.com 1.10,2013-08-26 03:36:00,
2013-08-25 23:51:00,76.4,74.0,30.12,North,355,2.0,3.0,91,0.00,,,0.13,0,weatherlink.com 1.10,2013-08-26 03:51:00,